Weather - Helsinki Query any day in the database

Current weather  

Weather data for a selected day (2006-01-01 -2020-10-31)
Enter date:     <-     scroll days         ->
day curves
Low temperature°C +15.202:00
High temperature°C +25.717:30
Low wind chill°C 1502:00
Average temperature°C +20.0 
High wind speed (10 min) m/s 6.713:30
Low pressurehPa 1004.419:00
High pressurehPa 1013.500:00
Low R.H% 6113:30
High R.H% 9403:30
Day weather data as a table
Date Time Temp
°C
Chill
°C
Pressure
hPA
Wind
m/s
Hum
%
Precip
mm
2017-08-12 19:00:00 23.6  ....  1004.4 3.6 73 -
2017-08-12 18:30:00 24.3  ....  1005.8 4.7 70 -
2017-08-12 18:00:00 25.0  ....  1006.1 4.8 67 -
2017-08-12 17:30:00 25.7  ....  1006.4 4.5 66 -
2017-08-12 17:00:00 25.7  ....  1006.8 5.2 66 -
2017-08-12 16:30:00 25.5  ....  1007.3 4.8 67 -
2017-08-12 16:00:00 25.0  ....  1007.9 4.0 68 -
2017-08-12 15:30:00 24.2  ....  1008.5 4.7 70 -
2017-08-12 15:00:00 23.8  ....  1008.9 5.0 68 -
2017-08-12 14:30:00 23.8  ....  1009.0 4.7 64 -
2017-08-12 14:00:00 23.7  ....  1009.3 5.6 63 -
2017-08-12 13:30:00 23.7  ....  1009.2 6.7 61 -
2017-08-12 13:00:00 23.4  ....  1009.0 6.7 64 -
2017-08-12 12:30:00 22.8  ....  1008.8 5.4 62 -
2017-08-12 12:00:00 23.1  ....  1009.3 4.9 64 -
2017-08-12 11:30:00 21.4  ....  1009.4 5.3 70 -
2017-08-12 11:00:00 21.3  ....  1009.3 5.3 70 -
2017-08-12 10:30:00 21.4  ....  1009.2 4.0 70 -
2017-08-12 10:00:00 20.4  ....  1009.8 4.0 72 -
2017-08-12 09:30:00 19.7  19.7  1010.4 3.8 73 -
2017-08-12 09:00:00 19.1  19.1  1010.8 3.5 74 -
2017-08-12 08:30:00 18.3  18.3  1011.6 3.4 77 -
2017-08-12 08:00:00 17.7  17.6  1011.7 3.6 83 -
2017-08-12 07:30:00 17.1  16.9  1011.8 3.5 86 -
2017-08-12 07:00:00 16.9  16.8  1011.6 3.0 87 -
2017-08-12 06:30:00 16.3  16.3  1011.9 1.8 89 -
2017-08-12 06:00:00 15.9  15.9  1012.1 1.8 90 -
2017-08-12 05:30:00 15.9  15.8  1012.2 2.6 91 -
2017-08-12 05:00:00 16.3  16.3  1012.5 2.5 89 -
2017-08-12 04:30:00 16.4  16.4  1012.9 2.5 92 -
2017-08-12 04:00:00 16.3  16.1  1013.1 3.0 93 -
2017-08-12 03:30:00 15.7  15.6  1013.2 2.4 94 -
2017-08-12 03:00:00 15.9  15.9  1013.2 2.0 94 -
2017-08-12 02:30:00 15.8  15.8  1013.3 2.3 93 -
2017-08-12 02:00:00 15.2  15.0  1013.3 2.4 94 -
2017-08-12 01:30:00 15.9  15.9  1013.1 2.0 93 -
2017-08-12 01:00:00 15.9  15.6  1013.3 2.9 92 -
2017-08-12 00:30:00 16.0  15.5  1013.4 3.7 90 -
2017-08-12 00:00:00 16.4  15.9  1013.5 3.7 85 -
Unit conversions: